Hastings Natural History Reservation, California Weather observations

Data are for 10 minute period ending at time listed.
 Day   Time   Solar   Ave.   Ave.  Ave.  Vector  Max.   Baro.   Total    
  of    of     Rad.   Air    Rel.  Wind   Wind   Wind  Press.  Precip.   
Year   Day            Temp.  Hum.  Speed  Dir.   Gust                    
2015   (PST)  Kw/m2    F      %     mph   deg.    mph    mb.     in.     
-------------------------------------------------------------------------
 212    2:30   0.00   66.7    41    0.0     0     0.0   952.7    0.00 
 212    2:40   0.00   66.7    41    0.0     0     0.0   952.8    0.00 
 212    2:50   0.00   66.7    41    0.9    44     1.4   952.8    0.00 
 212    3:00   0.00   66.7    40    1.0    45     1.5   952.9    0.00 
 212    3:10   0.00   66.7    41    0.9    48     1.7   952.9    0.00 
 212    3:20   0.00   66.7    41    0.1    47     0.7   953.0    0.00 
 212    3:30   0.00   66.1    42    0.3    50     1.2   953.0    0.00 
 212    3:40   0.00   65.6    43    0.0    47     0.6   953.1    0.00 
 212    3:50   0.00   65.2    44    0.2    58     1.2   953.1    0.00 
 212    4:00   0.00   65.1    44    0.3    48     0.9   953.1    0.00 
 212    4:10   0.00   65.1    45    0.1    51     0.8   953.1    0.00 
 212    4:20   0.00   65.3    47    0.2    38     0.7   953.1    0.00 
 212    4:30   0.00   65.7    46    0.0   268     0.6   953.1    0.00 
 212    4:40   0.00   65.9    46    0.7    48     1.3   953.1    0.00 
 212    4:50   0.00   66.2    46    0.1    48     0.9   953.1    0.00 
 212    5:00   0.00   66.3    47    0.0    49     0.7   953.1    0.00 
 212    5:10   0.00   66.6    46    0.8    55     1.2   953.1    0.00 
 212    5:20   0.00   66.7    46    0.3    57     1.1   953.1    0.00 
 212    5:30   0.00   66.7    46    0.0     0     0.0   953.0    0.00 
 212    5:40   0.00   66.7    47    0.0    74     0.3   953.1    0.00 
 212    5:50   0.00   66.8    47    0.1    47     0.7   953.1    0.00 
 212    6:00   0.00   66.9    47    0.0    50     1.0   953.2    0.00 
 212    6:10   0.00   66.9    47    0.5    51     1.2   953.2    0.00 
 212    6:20   0.00   67.0    46    0.9    51     1.6   953.3    0.00 
 212    6:30   0.00   66.9    46    0.2    44     0.9   953.3    0.00 
 212    6:40   0.01   66.7    47    0.4    58     1.2   953.4    0.00 
 212    6:50   0.01   66.8    47    0.0    62     0.6   953.5    0.00 
 212    7:00   0.01   66.7    47    0.8    50     1.8   953.6    0.00 
 212    7:10   0.03   66.6    47    0.1   238     0.9   953.7    0.00 
 212    7:20   0.04   66.6    48    1.2    56     2.0   953.8    0.00 
 212    7:30   0.05   67.4    48    0.0     0     0.0   953.7    0.00 
 212    7:40   0.06   68.3    46    0.3    42     1.4   953.8    0.00 
 212    7:50   0.04   69.0    46    0.1   135     0.7   953.6    0.00 
 212    8:00   0.13   70.0    42    1.0   224     2.0   953.5    0.00 
 212    8:10   0.17   71.5    40    0.7    59     1.6   953.4    0.00 
 212    8:20   0.24   74.8    36    0.2    60     0.9   953.3    0.00 
 212    8:30   0.25   78.4    31    0.1    36     0.9   953.2    0.00 
 212    8:40   0.23   78.7    31    0.0   161     0.8   953.2    0.00 
 212    8:50   0.34   81.2    29    0.4    93     1.6   953.2    0.00 
 212    9:00   0.35   83.2    27    0.9   181     2.2   953.2    0.00 
 212    9:10   0.39   82.1    28    1.9   240     4.7   953.4    0.00 
 212    9:20   0.42   84.3    25    0.8    20     2.8   953.5    0.00 
 212    9:30   0.39   84.4    26    2.0   252     4.4   953.6    0.00 
 212    9:40   0.44   82.7    27    2.7   244     5.0   953.5    0.00 
 212    9:50   0.54   84.8    24    2.3   245     5.6   953.5    0.00 
 212   10:00   0.47   85.5    19    2.4   242     5.8   953.5    0.00 
 212   10:10   0.47   85.5    21    3.3   249     6.6   953.5    0.00 
 212   10:20   0.30   84.5    26    3.0   253     6.5   953.6    0.00 
 212   10:30   0.36   82.4    34    3.3   251     7.2   953.6    0.00 
 212   10:40   0.62   83.0    35    2.7   246     7.0   953.6    0.00 
 212   10:50   0.60   83.1    36    2.8   243     6.4   953.7    0.00 
 212   11:00   0.71   81.5    37    4.6   249     8.1   953.7    0.00 
 212   11:10   0.73   81.4    37    3.9   246     8.1   953.7    0.00 
 212   11:20   0.72   82.9    36    2.4   275     6.9   953.7    0.00 
 212   11:30   0.69   83.3    36    2.6   270     8.0   953.8    0.00 
 212   11:40   0.75   83.4    37    5.1   250    10.2   953.7    0.00 
 212   11:50   0.70   81.8    41    4.4   251    10.3   953.8    0.00 
 212   12:00   0.80   82.3    40    4.2   247     9.8   953.9    0.00 
 212   12:10   0.80   82.9    38    3.6   256     8.9   953.9    0.00 
 212   12:20   0.79   82.6    35    5.2   238    10.6   953.9    0.00 
 212   12:30   0.80   83.8    33    3.1   250     8.3   953.9    0.00 
 212   12:40   0.79   84.7    32    3.9   258    11.1   953.9    0.00 
 212   12:50   0.83   86.3    33    2.5   357    10.5   953.9    0.00 
 212   13:00   0.82   86.7    31    3.0   267     9.6   953.9    0.00 
 212   13:10   0.88   85.5    29    4.0   272    10.1   953.8    0.00 
 212   13:20   0.90   87.0    26    2.4   279     9.6   953.7    0.00 
 212   13:30   0.84   87.0    24    3.5   278    11.9   953.7    0.00 
 212   13:40   0.67   84.7    28    4.5   256    11.5   953.8    0.00 
 212   13:50   0.85   84.2    34    2.4   266     9.8   953.8    0.00 
 212   14:00   0.84   85.1    33    3.1   285     9.1   953.8    0.00 
 212   14:10   0.85   85.7    31    2.5   323     7.7   953.7    0.00 
 212   14:20   0.82   85.7    30    3.0   325     9.6   953.7    0.00 
 212   14:30   0.79   85.3    29    3.9   255    11.0   953.6    0.00 
 212   14:40   0.80   87.0    26    3.0   302     9.2   953.5    0.00 
 212   14:50   0.80   87.3    26    2.6   347     9.1   953.4    0.00 
 212   15:00   0.76   88.0    25    3.4   280    10.5   953.3    0.00 
 212   15:10   0.75   86.4    29    3.8   257    10.2   953.1    0.00 
 212   15:20   0.69   85.4    32    5.4   249    11.3   953.1    0.00 
 212   15:30   0.73   85.7    32    2.3   271     9.3   953.0    0.00 
 212   15:40   0.71   86.6    32    3.9   267    11.6   952.9    0.00 
 212   15:50   0.68   85.2    35    3.8   258    11.2   952.9    0.00 
 212   16:00   0.67   84.5    37    3.1   321     8.5   952.9    0.00 
 212   16:10   0.66   84.3    37    3.3   332     8.8   952.8    0.00 
 212   16:20   0.63   83.5    39    4.1   271    13.5   952.8    0.00 
 212   16:30   0.60   81.4    42    2.9   286     8.6   952.8    0.00 
 212   16:40   0.55   81.5    43    3.2   262    11.2   952.8    0.00 
 212   16:50   0.56   81.4    43    2.5   336     8.3   952.9    0.00 
 212   17:00   0.52   80.9    45    2.3   286     8.8   952.9    0.00 
 212   17:10   0.51   80.2    46    2.0   322     7.1   952.9    0.00 
 212   17:20   0.47   79.6    47    2.3   312     6.9   952.9    0.00 
 212   17:30   0.45   78.6    48    2.8   280     9.0   952.8    0.00 
 212   17:40   0.42   78.8    48    2.6   353     7.8   952.8    0.00 
 212   17:50   0.38   77.3    50    3.1   287     8.3   952.7    0.00 
 212   18:00   0.34   77.2    50    2.7   302     8.6   952.7    0.00 
 212   18:10   0.28   76.9    50    2.6   259     7.6   952.7    0.00 
 212   18:20   0.27   76.0    51    2.1   286     6.9   952.7    0.00 
 212   18:30   0.22   75.2    51    2.9   256     8.4   952.6    0.00 
 212   18:40   0.18   74.4    52    3.6   254     8.8   952.6    0.00 
 212   18:50   0.10   74.0    53    2.1   290     7.9   952.5    0.00 
 212   19:00   0.14   72.8    55    3.7   252     7.7   952.5    0.00 
 212   19:10   0.03   72.4    56    1.8   260     6.0   952.3    0.00 
 212   19:20   0.03   71.6    57    3.0   239     5.8   952.3    0.00 
 212   19:30   0.03   70.7    58    3.3   238     5.9   952.3    0.00 
 212   19:40   0.01   70.1    60    2.3   245     5.6   952.4    0.00 
 212   19:50   0.01   69.6    61    1.0   251     3.3   952.4    0.00 
 212   20:00   0.01   69.3    62    2.0   241     3.9   952.4    0.00 
 212   20:10   0.00   68.6    63    1.4   252     2.9   952.4    0.00 
 212   20:20   0.00   67.9    65    1.0   261     2.5   952.5    0.00 
 212   20:30   0.00   67.1    66    1.5   209     3.4   952.6    0.00 
 212   20:40   0.00   66.6    67    0.7   248     2.1   952.7    0.00 
 212   20:50   0.00   66.2    68    0.3   252     1.2   952.7    0.00 
 212   21:00   0.00   65.5    70    0.8   250     2.4   952.8    0.00 
 212   21:10   0.00   64.9    71    0.2   220     1.4   952.8    0.00 
 212   21:20   0.00   64.7    71    0.0     0     0.0   952.8    0.00 
 212   21:30   0.00   64.3    70    0.4    80     1.4   952.9    0.00 
 212   21:40   0.00   64.2    70    0.2    46     1.0   953.0    0.00 
 212   21:50   0.00   64.2    69    0.0   251     0.1   953.1    0.00 
 212   22:00   0.00   63.8    69    0.0     0     0.0   953.1    0.00 
 212   22:10   0.00   63.5    69    0.6    60     1.5   953.1    0.00 
 212   22:20   0.00   63.4    69    0.1   230     0.9   953.1    0.00 
 212   22:30   0.00   63.1    69    0.1   231     0.9   953.1    0.00 
 212   22:40   0.00   62.8    70    0.3    54     2.3   953.0    0.00 
 212   22:50   0.00   62.4    69    0.4    76     2.0   953.0    0.00 
 212   23:00   0.00   62.2    69    0.4    52     1.2   953.0    0.00 
 212   23:10   0.00   61.9    69    0.6    46     1.2   953.1    0.00 
 212   23:20   0.00   61.8    68    0.3    18     1.1   953.1    0.00 
 212   23:30   0.00   61.4    69    0.9    66     1.9   953.0    0.00 
 212   23:40   0.00   61.1    67    0.7    44     1.0   953.0    0.00 
 212   23:50   0.00   60.8    65    0.8    44     1.5   953.0    0.00 
 213    0:00   0.00   60.6    62    0.5    40     1.2   953.0    0.00 
 213    0:10   0.00   60.4    62    0.5    47     1.8   953.2    0.00 
 213    0:20   0.00   60.2    61    0.6    47     1.5   953.2    0.00 
 213    0:30   0.00   60.1    58    0.8    47     1.7   953.1    0.00 
 213    0:40   0.00   60.1    56    1.0    45     1.6   953.1    0.00 
 213    0:50   0.00   60.2    56    0.2    44     0.9   953.0    0.00 
 213    1:00   0.00   60.2    55    0.6    54     1.0   953.0    0.00 
 213    1:10   0.00   60.0    55    0.1    49     0.7   952.7    0.00 
 213    1:20   0.00   59.9    55    0.1    33     0.7   952.7    0.00 
 213    1:30   0.00   59.7    55    0.9    54     1.5   952.6    0.00 
 213    1:40   0.00   59.5    55    0.9    54     2.0   952.7    0.00 
 213    1:50   0.00   59.4    54    0.8    48     1.5   952.7    0.00 
 213    2:00   0.00   59.2    54    0.5    50     1.2   952.7    0.00 
 213    2:10   0.00   58.9    53    0.4    52     1.4   952.7    0.00 
 213    2:20   0.00   58.9    52    0.5    60     1.5   952.6    0.00 

Return to Hastings Natural History Reservation graphs page.


Western Regional Climate Center,wrcc@dri.edu